Time;durP1;ratioP1;P1;durP2;ratioP2;P2;SDS_P1;SDS_P2;PMS_P1;PMS_P2;Temp;Humidity;BMP_temperature;BMP_pressure;BME280_temperature;BME280_humidity;BME280_pressure;Samples;Min_cycle;Max_cycle;Signal;HPM_P1;HPM_P2
2021/04/26 00:01:50;;;;;;;1.75;1.13;;;11.60;47.60;;;;;;4909356;29;20032;-89
2021/04/26 00:04:16;;;;;;;1.50;1.40;;;11.50;47.50;;;;;;4937994;29;20028;-88
2021/04/26 00:06:42;;;;;;;0.98;0.80;;;11.50;47.70;;;;;;4909216;29;20484;-91
2021/04/26 00:09:09;;;;;;;2.72;1.13;;;11.40;47.60;;;;;;4928208;29;20101;-91
2021/04/26 00:11:35;;;;;;;1.55;1.05;;;11.40;47.70;;;;;;4912311;29;20374;-94
2021/04/26 00:14:01;;;;;;;1.80;1.10;;;11.40;47.70;;;;;;4929603;29;20032;-91
2021/04/26 00:16:27;;;;;;;1.17;1.02;;;11.30;47.70;;;;;;4923292;29;20036;-93
2021/04/26 00:18:53;;;;;;;1.05;0.95;;;11.30;47.70;;;;;;4929108;29;20422;-93
2021/04/26 00:21:18;;;;;;;1.80;1.10;;;11.30;47.80;;;;;;4883716;29;20103;-92
2021/04/26 00:23:44;;;;;;;1.67;1.15;;;11.20;47.80;;;;;;4896132;29;20456;-93
2021/04/26 00:26:11;;;;;;;1.60;1.20;;;11.20;47.80;;;;;;4908295;29;20044;-92
2021/04/26 00:28:37;;;;;;;2.42;1.20;;;11.20;47.90;;;;;;4924140;29;20039;-91
2021/04/26 00:31:04;;;;;;;1.55;1.15;;;11.20;47.90;;;;;;4906710;29;20123;-93
2021/04/26 00:33:30;;;;;;;1.90;1.15;;;11.10;47.90;;;;;;4904412;29;20036;-86
2021/04/26 00:35:56;;;;;;;1.80;1.40;;;11.10;47.90;;;;;;4929992;29;20036;-91
2021/04/26 00:38:22;;;;;;;2.60;1.17;;;11.10;48.00;;;;;;4933268;29;20044;-85
2021/04/26 00:40:47;;;;;;;1.55;1.17;;;11.10;48.00;;;;;;4888358;29;20035;-92
2021/04/26 00:43:14;;;;;;;1.60;1.20;;;11.00;48.00;;;;;;4886641;29;20036;-89
2021/04/26 00:45:39;;;;;;;1.67;1.20;;;11.00;48.00;;;;;;4902752;29;20091;-93
2021/04/26 00:48:05;;;;;;;1.15;1.05;;;10.90;48.00;;;;;;4886453;29;20029;-93
2021/04/26 00:50:32;;;;;;;1.20;1.02;;;10.90;48.10;;;;;;4869472;29;20033;-92
2021/04/26 00:53:00;;;;;;;1.58;1.17;;;10.90;48.10;;;;;;4905204;29;20104;-88
2021/04/26 00:55:32;;;;;;;1.17;1.00;;;10.90;48.10;;;;;;4888790;29;20481;-90
2021/04/26 00:57:59;;;;;;;1.65;1.30;;;10.80;48.10;;;;;;4917463;29;20056;-89
2021/04/26 01:00:27;;;;;;;1.77;1.23;;;10.80;48.20;;;;;;4897179;29;20028;-92
2021/04/26 01:02:54;;;;;;;1.20;1.10;;;10.70;48.20;;;;;;4910834;29;20028;-88
2021/04/26 01:05:24;;;;;;;1.67;1.23;;;10.70;48.20;;;;;;4893746;29;20075;-92
2021/04/26 01:07:50;;;;;;;1.48;1.38;;;10.70;48.30;;;;;;4912454;29;20095;-92
2021/04/26 01:10:22;;;;;;;1.40;1.20;;;10.70;48.30;;;;;;4932700;29;20542;-94
2021/04/26 01:13:16;;;;;;;1.17;1.08;;;10.70;48.30;;;;;;4915881;29;20134;-93
2021/04/26 01:15:49;;;;;;;1.70;1.08;;;10.60;48.40;;;;;;4909082;29;20132;-92
2021/04/26 01:18:31;;;;;;;1.88;1.20;;;10.60;48.30;;;;;;4913359;29;20052;-91
2021/04/26 01:21:24;;;;;;;2.22;1.25;;;10.50;48.40;;;;;;4932096;29;20440;-91
2021/04/26 01:24:23;;;;;;;1.13;1.02;;;10.50;48.50;;;;;;4913358;29;20040;-93
2021/04/26 01:27:13;;;;;;;1.27;1.17;;;10.50;48.50;;;;;;4917380;29;20036;-92
2021/04/26 01:30:03;;;;;;;;;;;10.40;48.40;;;;;;4918809;29;20080;-89
2021/04/26 01:32:53;;;;;;;2.17;1.23;;;10.40;48.40;;;;;;4924186;29;19915;-92
2021/04/26 01:35:24;;;;;;;1.17;1.00;;;10.40;48.40;;;;;;4917674;29;20481;-91
2021/04/26 01:38:04;;;;;;;1.52;1.10;;;10.30;48.50;;;;;;4920247;29;20044;-92
2021/04/26 01:40:32;;;;;;;1.80;1.10;;;10.30;48.60;;;;;;4917992;29;20031;-91
2021/04/26 01:43:00;;;;;;;1.30;1.15;;;10.20;48.50;;;;;;4915863;29;20028;-92
2021/04/26 01:45:26;;;;;;;1.35;1.08;;;10.20;48.60;;;;;;4908039;29;20044;-92
2021/04/26 01:47:55;;;;;;;1.70;1.20;;;10.20;48.60;;;;;;4918222;29;20021;-91
2021/04/26 01:50:25;;;;;;;2.08;1.25;;;10.20;48.70;;;;;;4890102;29;20037;-90
2021/04/26 01:52:51;;;;;;;1.75;1.30;;;10.20;48.70;;;;;;4904813;29;20474;-91
2021/04/26 01:55:20;;;;;;;1.33;1.08;;;10.20;48.70;;;;;;4884657;29;20036;-89
2021/04/26 01:57:50;;;;;;;1.27;1.02;;;10.10;48.70;;;;;;4900000;29;20040;-91
2021/04/26 02:00:30;;;;;;;1.30;1.20;;;10.10;48.70;;;;;;4900265;29;20035;-91
2021/04/26 02:03:08;;;;;;;1.88;1.25;;;10.10;48.80;;;;;;4901867;29;20031;-91
2021/04/26 02:05:44;;;;;;;2.08;1.50;;;10.10;48.70;;;;;;4901146;29;20378;-92
2021/04/26 02:08:13;;;;;;;1.67;1.30;;;10.00;48.70;;;;;;4905362;29;20036;-93
2021/04/26 02:10:43;;;;;;;1.60;1.30;;;10.00;48.80;;;;;;4902431;29;20465;-90
2021/04/26 02:13:14;;;;;;;2.00;1.20;;;10.00;48.80;;;;;;4896629;29;20028;-92
2021/04/26 02:15:41;;;;;;;1.50;1.40;;;9.90;48.90;;;;;;4900171;29;20028;-90
2021/04/26 02:18:08;;;;;;;3.33;1.40;;;9.90;48.90;;;;;;4875938;29;20385;-91
2021/04/26 02:20:34;;;;;;;1.45;1.35;;;9.90;48.90;;;;;;4922146;29;20032;-90
2021/04/26 02:23:01;;;;;;;1.75;1.15;;;9.90;48.90;;;;;;4900275;29;20055;-90
2021/04/26 02:25:28;;;;;;;1.25;1.10;;;9.90;49.00;;;;;;4916869;29;20056;-91
2021/04/26 02:27:54;;;;;;;1.45;1.20;;;9.80;48.90;;;;;;4899876;29;20028;-92
2021/04/26 02:30:22;;;;;;;1.48;1.20;;;9.80;49.00;;;;;;4881917;29;20060;-91
2021/04/26 02:33:05;;;;;;;1.25;1.10;;;9.80;49.00;;;;;;4920640;29;20040;-92
2021/04/26 02:35:39;;;;;;;1.70;1.35;;;9.80;49.10;;;;;;4902831;29;20032;-92
2021/04/26 02:38:09;;;;;;;1.50;1.15;;;9.80;49.10;;;;;;4916392;29;20141;-87
2021/04/26 02:40:43;;;;;;;1.65;1.20;;;9.70;49.10;;;;;;4903405;29;20032;-91
2021/04/26 02:43:12;;;;;;;2.35;1.25;;;9.70;49.10;;;;;;4915092;29;20084;-92
2021/04/26 02:45:49;;;;;;;1.40;1.30;;;9.70;49.20;;;;;;4931068;29;20040;-93
2021/04/26 02:48:16;;;;;;;1.95;1.38;;;9.60;49.10;;;;;;4917657;29;20354;-91
2021/04/26 02:50:50;;;;;;;2.20;1.40;;;9.60;49.10;;;;;;4930818;29;20374;-91
2021/04/26 02:53:17;;;;;;;2.28;1.60;;;9.60;49.20;;;;;;4903524;29;20031;-90
2021/04/26 02:55:45;;;;;;;1.52;1.20;;;9.50;49.20;;;;;;4920511;29;20040;-91
2021/04/26 02:58:13;;;;;;;1.40;1.20;;;9.50;49.20;;;;;;4916285;29;20096;-91
2021/04/26 03:00:40;;;;;;;2.22;1.30;;;9.50;49.20;;;;;;4911146;29;20375;-92
2021/04/26 03:03:30;;;;;;;2.80;1.40;;;9.50;49.30;;;;;;4933859;29;20038;-93
2021/04/26 03:06:01;;;;;;;1.83;1.38;;;9.50;49.30;;;;;;4925978;29;20442;-92
2021/04/26 03:08:29;;;;;;;1.30;1.20;;;9.50;49.30;;;;;;4934807;29;20040;-92
2021/04/26 03:10:56;;;;;;;1.80;1.10;;;9.40;49.30;;;;;;4894233;29;20032;-91
2021/04/26 03:13:22;;;;;;;1.85;1.10;;;9.40;49.30;;;;;;4916814;29;20060;-92
2021/04/26 03:15:48;;;;;;;1.42;1.30;;;9.40;49.30;;;;;;4906964;29;20042;-91
2021/04/26 03:18:16;;;;;;;1.90;1.30;;;9.40;49.40;;;;;;4902574;29;20032;-91
2021/04/26 03:20:44;;;;;;;1.20;1.10;;;9.30;49.40;;;;;;4909378;29;20024;-90
2021/04/26 03:23:21;;;;;;;1.45;1.20;;;9.30;49.40;;;;;;4919119;29;20067;-91
2021/04/26 03:25:48;;;;;;;1.25;1.20;;;9.30;49.40;;;;;;4932523;29;20036;-92
2021/04/26 03:28:18;;;;;;;1.88;1.30;;;9.30;49.40;;;;;;4914856;29;20137;-90
2021/04/26 03:30:45;;;;;;;1.75;1.27;;;9.30;49.50;;;;;;4934206;29;20389;-91
2021/04/26 03:33:40;;;;;;;;;;;9.20;49.40;;;;;;4929462;29;20497;-92
2021/04/26 03:36:07;;;;;;;1.38;1.20;;;9.20;49.40;;;;;;4934633;29;20367;-92
2021/04/26 03:38:36;;;;;;;1.70;1.17;;;9.20;49.40;;;;;;4951276;28;20107;-89
2021/04/26 03:41:03;;;;;;;1.83;1.20;;;9.10;50.10;;;;;;4961551;28;20024;-91
2021/04/26 03:43:31;;;;;;;1.20;1.10;;;9.10;49.50;;;;;;4943981;28;20153;-91
2021/04/26 03:46:04;;;;;;;1.70;1.15;;;9.10;49.60;;;;;;4948965;28;20055;-91
2021/04/26 03:48:53;;;;;;;1.77;1.30;;;9.10;49.60;;;;;;4910507;29;20076;-88
2021/04/26 03:51:24;;;;;;;1.33;1.23;;;9.00;49.60;;;;;;4954410;28;20040;-91
2021/04/26 03:54:09;;;;;;;1.52;1.25;;;9.00;49.60;;;;;;4941971;29;20042;-90
2021/04/26 03:56:40;;;;;;;1.85;1.20;;;9.00;49.60;;;;;;4936740;29;20058;-91
2021/04/26 03:59:07;;;;;;;1.83;1.25;;;9.00;49.70;;;;;;4937052;29;20099;-92
2021/04/26 04:01:35;;;;;;;2.30;1.45;;;9.00;49.70;;;;;;4918272;29;20024;-92
2021/04/26 04:04:04;;;;;;;1.70;1.13;;;9.00;49.80;;;;;;4960279;28;20488;-91
2021/04/26 04:06:49;;;;;;;2.05;1.23;;;8.90;49.80;;;;;;4923562;29;20484;-91
2021/04/26 04:09:35;;;;;;;1.88;1.40;;;8.90;49.70;;;;;;4941538;28;20095;-90
2021/04/26 04:12:21;;;;;;;2.20;1.10;;;8.90;49.80;;;;;;4965183;28;20047;-90
2021/04/26 04:15:10;;;;;;;2.08;1.25;;;8.90;49.80;;;;;;4923328;29;20048;-90
2021/04/26 04:17:38;;;;;;;2.63;1.40;;;8.80;49.80;;;;;;4937196;29;20038;-91
2021/04/26 04:20:07;;;;;;;2.28;1.50;;;8.80;49.90;;;;;;4956333;28;20065;-89
2021/04/26 04:22:36;;;;;;;2.92;1.30;;;8.80;49.90;;;;;;4955367;28;20038;-89
2021/04/26 04:25:03;;;;;;;2.17;1.48;;;8.80;49.90;;;;;;4920195;29;20086;-90
2021/04/26 04:27:30;;;;;;;1.83;1.30;;;8.80;50.00;;;;;;4920763;29;20035;-90
2021/04/26 04:29:57;;;;;;;1.83;1.30;;;8.70;49.90;;;;;;4931642;29;20512;-90
2021/04/26 04:32:42;;;;;;;1.90;1.30;;;8.70;50.00;;;;;;4920748;29;20141;-88
2021/04/26 04:35:26;;;;;;;1.55;1.42;;;8.70;49.90;;;;;;4913727;29;20131;-92
2021/04/26 04:38:11;;;;;;;1.73;1.50;;;8.60;49.90;;;;;;4905684;29;20046;-91
2021/04/26 04:40:56;;;;;;;2.00;1.20;;;8.60;50.00;;;;;;4916054;29;20067;-92
2021/04/26 04:43:27;;;;;;;2.33;1.50;;;8.60;50.10;;;;;;4883642;29;20032;-91
2021/04/26 04:45:56;;;;;;;1.95;1.25;;;8.60;50.10;;;;;;4899265;29;20051;-87
2021/04/26 04:48:40;;;;;;;2.00;1.30;;;8.60;50.10;;;;;;4918126;29;20069;-86
2021/04/26 04:51:11;;;;;;;1.40;1.30;;;8.50;50.10;;;;;;4903334;29;20036;-83
2021/04/26 04:53:40;;;;;;;2.28;1.50;;;8.50;50.20;;;;;;4916879;29;20036;-85
2021/04/26 04:56:06;;;;;;;1.65;1.40;;;8.50;50.20;;;;;;4922630;29;20042;-87
2021/04/26 04:58:39;;;;;;;2.25;1.45;;;8.50;50.20;;;;;;4892919;29;20029;-87
2021/04/26 05:01:07;;;;;;;2.17;1.50;;;8.50;50.20;;;;;;4913341;29;20047;-87
2021/04/26 05:03:51;;;;;;;1.85;1.33;;;8.50;50.20;;;;;;4905363;29;20043;-85
2021/04/26 05:06:55;;;;;;;1.52;1.30;;;8.50;50.20;;;;;;4925377;29;20047;-87
2021/04/26 05:09:39;;;;;;;1.45;1.35;;;8.40;50.20;;;;;;4913827;29;20385;-88
2021/04/26 05:12:24;;;;;;;1.77;1.40;;;8.40;50.20;;;;;;4920778;29;20511;-87
2021/04/26 05:15:10;;;;;;;1.88;1.60;;;8.40;50.30;;;;;;4929089;29;20096;-84
2021/04/26 05:17:36;;;;;;;1.92;1.45;;;8.40;50.30;;;;;;4948146;28;20502;-85
2021/04/26 05:20:03;;;;;;;1.98;1.30;;;8.40;50.40;;;;;;4900114;29;20114;-85
2021/04/26 05:22:36;;;;;;;1.40;1.30;;;8.30;50.40;;;;;;4900948;29;20036;-82
2021/04/26 05:25:05;;;;;;;2.40;1.58;;;8.30;50.40;;;;;;4934497;29;20044;-86
2021/04/26 05:27:32;;;;;;;1.73;1.50;;;8.30;50.40;;;;;;4899093;29;20485;-85
2021/04/26 05:29:59;;;;;;;1.92;1.40;;;8.30;50.40;;;;;;4922519;29;20178;-86
2021/04/26 05:32:25;;;;;;;2.92;1.30;;;8.30;50.50;;;;;;4935188;29;20118;-82
2021/04/26 05:34:57;;;;;;;1.23;1.15;;;8.30;50.50;;;;;;4932037;29;20028;-83
2021/04/26 05:37:23;;;;;;;1.85;1.50;;;8.40;50.60;;;;;;4955889;28;20383;-86
2021/04/26 05:39:49;;;;;;;1.70;1.48;;;8.30;51.20;;;;;;4944068;28;20391;-87
2021/04/26 05:42:15;;;;;;;1.80;1.50;;;8.30;50.60;;;;;;4910058;29;20031;-87
2021/04/26 05:44:42;;;;;;;1.88;1.42;;;8.30;50.60;;;;;;4927084;29;20047;-88
2021/04/26 05:47:27;;;;;;;2.10;1.38;;;8.30;50.50;;;;;;4957065;28;20043;-86
2021/04/26 05:49:53;;;;;;;2.92;1.65;;;8.30;50.50;;;;;;4919623;29;20396;-87
2021/04/26 05:52:19;;;;;;;1.40;1.30;;;8.30;50.60;;;;;;4942695;28;20034;-86
2021/04/26 05:54:44;;;;;;;1.98;1.45;;;8.30;50.60;;;;;;4965206;28;20032;-87
2021/04/26 05:57:10;;;;;;;2.47;1.30;;;8.30;50.60;;;;;;4938505;28;20027;-88
2021/04/26 05:59:36;;;;;;;1.98;1.42;;;8.30;50.60;;;;;;4931975;29;20031;-88
2021/04/26 06:02:02;;;;;;;2.05;1.30;;;8.30;50.70;;;;;;4947691;28;20094;-86
2021/04/26 06:04:28;;;;;;;1.35;1.25;;;8.30;50.70;;;;;;4919538;29;20028;-85
2021/04/26 06:06:54;;;;;;;1.33;1.20;;;8.30;50.70;;;;;;4947764;28;20045;-87
2021/04/26 06:09:19;;;;;;;1.40;1.30;;;8.30;50.70;;;;;;4958696;28;20058;-87
2021/04/26 06:11:45;;;;;;;1.50;1.30;;;8.30;50.70;;;;;;4951169;28;20034;-86
2021/04/26 06:14:11;;;;;;;1.40;1.25;;;8.30;50.70;;;;;;4947712;28;20060;-87
2021/04/26 06:16:37;;;;;;;1.67;1.20;;;8.30;50.70;;;;;;4932724;29;20391;-86
2021/04/26 06:19:04;;;;;;;1.50;1.30;;;8.30;50.80;;;;;;4929266;29;20373;-85
2021/04/26 06:21:30;;;;;;;3.03;1.50;;;8.30;50.80;;;;;;4949800;28;20428;-86
2021/04/26 06:23:56;;;;;;;1.45;1.27;;;8.30;50.80;;;;;;4931265;28;20035;-87
2021/04/26 06:26:22;;;;;;;1.98;1.30;;;8.30;50.80;;;;;;4956990;28;20177;-87
2021/04/26 06:28:48;;;;;;;2.17;1.55;;;8.30;50.80;;;;;;4945771;28;20034;-86
2021/04/26 06:31:14;;;;;;;1.80;1.30;;;8.30;50.80;;;;;;4947423;28;20043;-87
2021/04/26 06:33:40;;;;;;;1.67;1.30;;;8.30;50.80;;;;;;4960061;28;20038;-87
2021/04/26 06:36:06;;;;;;;1.60;1.25;;;8.30;50.80;;;;;;4941129;29;20035;-87
2021/04/26 06:38:32;;;;;;;1.55;1.30;;;8.30;50.90;;;;;;4925690;29;20031;-86
2021/04/26 06:40:58;;;;;;;1.75;1.20;;;8.30;50.90;;;;;;4926497;28;20475;-86
2021/04/26 06:43:24;;;;;;;2.30;1.48;;;8.30;51.50;;;;;;4950788;29;20034;-87
2021/04/26 06:45:50;;;;;;;1.33;1.20;;;8.30;50.90;;;;;;4926018;28;20060;-86
2021/04/26 06:48:17;;;;;;;3.22;1.42;;;8.30;50.90;;;;;;4965270;28;20114;-85
2021/04/26 06:50:43;;;;;;;1.67;1.30;;;8.30;50.90;;;;;;4964895;28;20121;-86
2021/04/26 06:53:13;;;;;;;2.28;1.52;;;8.40;50.90;;;;;;4950472;29;20028;-86
2021/04/26 06:55:39;;;;;;;1.45;1.23;;;8.40;51.60;;;;;;4933522;28;20133;-84
2021/04/26 06:58:04;;;;;;;1.35;1.25;;;8.40;50.90;;;;;;4969456;28;20051;-84
2021/04/26 07:00:31;;;;;;;1.67;1.17;;;8.40;50.90;;;;;;4942058;29;20031;-82
2021/04/26 07:02:57;;;;;;;1.23;1.15;;;8.40;51.00;;;;;;4955294;28;20036;-86
2021/04/26 07:05:23;;;;;;;1.23;1.13;;;8.40;51.00;;;;;;4921846;29;20051;-88
2021/04/26 07:07:49;;;;;;;1.25;1.15;;;8.40;50.90;;;;;;4938558;28;20027;-86
2021/04/26 07:10:16;;;;;;;1.98;1.30;;;8.40;50.90;;;;;;4947043;28;20086;-85
2021/04/26 07:12:42;;;;;;;1.30;1.20;;;8.40;50.90;;;;;;4964644;28;20377;-86
2021/04/26 07:15:11;;;;;;;1.30;1.20;;;8.40;50.90;;;;;;4925621;28;20050;-85
2021/04/26 07:17:36;;;;;;;1.65;1.40;;;8.40;50.90;;;;;;4957016;28;20035;-85
2021/04/26 07:20:08;;;;;;;1.30;1.20;;;8.50;51.00;;;;;;4966068;28;20035;-86
2021/04/26 07:22:34;;;;;;;1.60;1.50;;;8.50;51.00;;;;;;4945561;28;20028;-85
2021/04/26 07:25:00;;;;;;;1.30;1.20;;;8.50;51.00;;;;;;4965714;28;20043;-86
2021/04/26 07:27:26;;;;;;;1.30;1.20;;;8.50;51.00;;;;;;4943386;28;20031;-86
2021/04/26 07:29:52;;;;;;;1.40;1.30;;;8.50;51.00;;;;;;4950117;28;20395;-86
2021/04/26 07:32:18;;;;;;;1.27;1.17;;;8.50;51.00;;;;;;4941249;28;20038;-84
2021/04/26 07:34:44;;;;;;;1.70;1.35;;;8.50;51.00;;;;;;4913731;29;20035;-85
2021/04/26 07:37:10;;;;;;;1.15;1.00;;;8.50;51.00;;;;;;4939512;28;20373;-85
2021/04/26 07:39:36;;;;;;;1.30;1.20;;;8.50;51.00;;;;;;4946504;28;20030;-85
2021/04/26 07:42:02;;;;;;;1.42;1.30;;;8.60;51.10;;;;;;4976345;28;20042;-85
2021/04/26 07:44:28;;;;;;;1.48;1.38;;;8.60;51.00;;;;;;4956061;28;20089;-85
2021/04/26 07:46:56;;;;;;;1.45;1.33;;;8.60;51.00;;;;;;4957317;28;20058;-85
2021/04/26 07:49:22;;;;;;;1.55;1.23;;;8.60;51.00;;;;;;4948328;28;20019;-87
2021/04/26 07:51:48;;;;;;;2.25;1.40;;;8.70;51.70;;;;;;4924293;29;20436;-85
2021/04/26 07:54:14;;;;;;;1.52;1.42;;;8.70;51.00;;;;;;4953291;28;20075;-85
2021/04/26 07:56:40;;;;;;;1.40;1.25;;;8.70;51.00;;;;;;4965871;28;20035;-85
2021/04/26 07:59:05;;;;;;;2.30;1.30;;;8.70;51.00;;;;;;4952149;28;20089;-85
2021/04/26 08:01:31;;;;;;;1.60;1.40;;;8.70;51.00;;;;;;4966016;28;20443;-85
2021/04/26 08:03:57;;;;;;;1.35;1.23;;;8.80;51.10;;;;;;4924912;29;20031;-85
2021/04/26 08:06:23;;;;;;;1.48;1.20;;;8.80;51.10;;;;;;4926802;28;20054;-85
2021/04/26 08:08:48;;;;;;;1.63;1.40;;;8.80;51.00;;;;;;4966304;28;20086;-86
2021/04/26 08:11:22;;;;;;;1.30;1.10;;;8.90;51.00;;;;;;4929250;28;20036;-85
2021/04/26 08:13:47;;;;;;;1.83;1.30;;;8.90;51.10;;;;;;4975124;28;20032;-85
2021/04/26 08:16:13;;;;;;;1.52;1.30;;;8.90;51.00;;;;;;4920359;29;20039;-86
2021/04/26 08:18:39;;;;;;;1.55;1.23;;;9.00;51.00;;;;;;4951574;28;20058;-85
2021/04/26 08:21:05;;;;;;;1.20;1.10;;;9.10;51.00;;;;;;4952698;28;20026;-84
2021/04/26 08:23:31;;;;;;;2.55;1.23;;;9.10;51.00;;;;;;4975687;28;20035;-85
2021/04/26 08:25:58;;;;;;;1.55;1.45;;;9.10;51.00;;;;;;4954319;29;20082;-86
2021/04/26 08:28:26;;;;;;;1.83;1.30;;;9.20;51.00;;;;;;4947349;28;20026;-83
2021/04/26 08:30:52;;;;;;;2.03;1.30;;;9.30;50.90;;;;;;4919162;28;20047;-83
2021/04/26 08:33:18;;;;;;;1.30;1.20;;;9.30;50.90;;;;;;4939718;28;20039;-93
2021/04/26 08:35:44;;;;;;;2.90;1.35;;;9.40;50.80;;;;;;4939857;28;20034;-84
2021/04/26 08:38:10;;;;;;;2.58;1.40;;;9.50;50.80;;;;;;4974803;28;20499;-88
2021/04/26 08:40:38;;;;;;;1.33;1.20;;;9.50;50.60;;;;;;4944884;28;20325;-93
2021/04/26 08:43:06;;;;;;;1.42;1.33;;;9.60;50.60;;;;;;4943191;28;20023;-94
2021/04/26 08:45:32;;;;;;;1.52;1.42;;;9.70;50.60;;;;;;4949287;29;20050;-93
2021/04/26 08:48:00;;;;;;;1.45;1.30;;;9.80;50.50;;;;;;4935619;28;20053;-91
2021/04/26 08:50:26;;;;;;;1.40;1.30;;;9.90;50.50;;;;;;4992188;28;20511;-94
2021/04/26 08:52:52;;;;;;;2.05;1.45;;;9.90;50.40;;;;;;4924790;29;20036;-93
2021/04/26 08:55:18;;;;;;;1.70;1.15;;;10.00;50.40;;;;;;4938683;29;20507;-95
2021/04/26 08:57:49;;;;;;;2.22;1.30;;;10.10;50.30;;;;;;4920688;28;20027;-92
2021/04/26 09:00:16;;;;;;;2.85;1.58;;;10.20;50.40;;;;;;4946456;28;20027;-95
2021/04/26 09:03:05;;;;;;;1.80;1.10;;;10.30;50.30;;;;;;4939842;28;20074;-93
2021/04/26 09:05:41;;;;;;;1.20;1.10;;;10.40;50.40;;;;;;4968657;28;20146;-93
2021/04/26 09:08:13;;;;;;;2.25;1.33;;;10.40;50.20;;;;;;4938434;29;20042;-90
2021/04/26 09:10:44;;;;;;;1.42;1.30;;;10.60;50.20;;;;;;4955248;28;20032;-95
2021/04/26 09:13:30;;;;;;;1.40;1.30;;;10.70;50.30;;;;;;4947730;28;20023;-94
2021/04/26 09:16:07;;;;;;;1.92;1.17;;;10.70;50.30;;;;;;4941763;28;20035;-95
2021/04/26 09:18:46;;;;;;;1.30;1.20;;;10.80;50.30;;;;;;4942587;28;20031;-94
2021/04/26 09:21:28;;;;;;;1.20;1.10;;;10.90;50.30;;;;;;4931307;29;20027;-95
2021/04/26 09:24:24;;;;;;;1.40;1.30;;;11.00;50.20;;;;;;4942312;29;20023;-94
2021/04/26 09:27:11;;;;;;;1.30;1.20;;;11.10;50.30;;;;;;4940147;29;20044;-95
2021/04/26 09:29:38;;;;;;;1.48;1.20;;;11.20;50.20;;;;;;4939340;29;20028;-92
2021/04/26 09:32:18;;;;;;;1.63;1.17;;;11.40;50.30;;;;;;4924970;29;20055;-94
2021/04/26 09:34:45;;;;;;;1.20;1.10;;;11.50;50.30;;;;;;4927687;29;20031;-95
2021/04/26 09:37:18;;;;;;;1.58;1.30;;;11.60;50.30;;;;;;4941374;28;20461;-91
2021/04/26 09:40:12;;;;;;;1.42;1.30;;;11.60;50.30;;;;;;4934519;28;20149;-92
2021/04/26 09:42:52;;;;;;;1.20;1.10;;;11.80;50.40;;;;;;4953888;29;20051;-89
2021/04/26 09:45:24;;;;;;;2.05;1.45;;;11.90;50.40;;;;;;4941973;28;20039;-94
2021/04/26 09:48:07;;;;;;;1.40;1.30;;;12.00;50.40;;;;;;4951378;29;20028;-94
2021/04/26 09:50:33;;;;;;;1.77;1.50;;;12.10;50.40;;;;;;4948728;28;20442;-95
2021/04/26 09:53:09;;;;;;;2.13;1.20;;;12.20;50.40;;;;;;4952621;29;20755;-89
2021/04/26 09:55:35;;;;;;;1.35;1.25;;;12.30;50.50;;;;;;4941478;29;20115;-94
2021/04/26 09:58:03;;;;;;;1.30;1.20;;;12.50;50.50;;;;;;4946366;29;20054;-94
2021/04/26 10:00:28;;;;;;;1.45;1.30;;;12.50;50.50;;;;;;4954613;28;20066;-93
2021/04/26 10:02:55;;;;;;;1.80;1.25;;;12.70;50.50;;;;;;4951752;28;20027;-90
2021/04/26 10:05:21;;;;;;;1.42;1.30;;;12.80;50.60;;;;;;4958062;28;20243;-93
2021/04/26 10:07:48;;;;;;;1.58;1.27;;;12.90;50.60;;;;;;4927519;28;20162;-94
2021/04/26 10:10:14;;;;;;;1.27;1.17;;;13.00;50.60;;;;;;4955705;29;20031;-88
2021/04/26 10:12:40;;;;;;;1.40;1.30;;;13.10;50.50;;;;;;4932024;29;20024;-86
2021/04/26 10:15:07;;;;;;;2.00;1.40;;;13.20;50.40;;;;;;4954854;28;20174;-87
2021/04/26 10:17:37;;;;;;;2.47;1.40;;;13.40;50.00;;;;;;4977231;28;20070;-91
2021/04/26 10:20:16;;;;;;;2.08;1.42;;;13.40;49.50;;;;;;4977704;28;20019;-89
2021/04/26 10:22:46;;;;;;;2.40;1.60;;;13.60;49.00;;;;;;4969855;29;20031;-86
2021/04/26 10:25:18;;;;;;;2.45;1.73;;;13.70;48.50;;;;;;4949385;28;20051;-89
2021/04/26 10:27:44;;;;;;;2.10;1.60;;;13.80;48.20;;;;;;4910023;29;20502;-88
2021/04/26 10:30:13;;;;;;;3.13;1.60;;;14.00;48.10;;;;;;4941819;29;20059;-87
2021/04/26 10:32:58;;;;;;;2.50;1.58;;;14.00;47.70;;;;;;4946028;28;20027;-89
2021/04/26 10:35:26;;;;;;;2.17;1.52;;;14.20;47.50;;;;;;4941910;29;20035;-86
2021/04/26 10:37:52;;;;;;;2.25;1.50;;;14.20;47.20;;;;;;4990902;28;20432;-82
2021/04/26 10:40:22;;;;;;;2.47;1.48;;;14.30;47.00;;;;;;4963785;28;20119;-81
2021/04/26 10:42:50;;;;;;;2.55;1.55;;;14.40;46.90;;;;;;4926930;29;20023;-83
2021/04/26 10:45:20;;;;;;;3.30;1.67;;;14.50;46.60;;;;;;4958969;28;20519;-82
2021/04/26 10:47:58;;;;;;;2.72;1.63;;;14.60;46.40;;;;;;4958045;28;20022;-89
2021/04/26 10:50:24;;;;;;;2.50;1.60;;;14.70;46.30;;;;;;4958867;28;20093;-88
2021/04/26 10:52:54;;;;;;;2.65;1.70;;;14.80;46.20;;;;;;4958541;28;20065;-88
2021/04/26 10:55:20;;;;;;;3.28;1.73;;;14.90;46.00;;;;;;4969623;28;20034;-88
2021/04/26 10:57:51;;;;;;;2.15;1.70;;;15.00;45.80;;;;;;4956196;28;20024;-81
2021/04/26 11:00:23;;;;;;;2.13;1.60;;;15.10;45.60;;;;;;4942641;29;20380;-79
2021/04/26 11:02:56;;;;;;;2.95;1.55;;;15.20;45.30;;;;;;4958239;28;20039;-90
2021/04/26 11:05:27;;;;;;;2.03;1.58;;;15.20;45.10;;;;;;4942672;29;20040;-92
2021/04/26 11:10:32;;;;;;;2.88;1.50;;;15.40;44.80;;;;;;4959151;28;20034;-88
2021/04/26 11:13:22;;;;;;;2.07;1.60;;;15.50;44.70;;;;;;4941473;28;20015;-87
2021/04/26 11:16:11;;;;;;;2.15;1.70;;;15.60;44.70;;;;;;4935388;28;20473;-88
2021/04/26 11:18:39;;;;;;;2.15;1.60;;;15.70;44.60;;;;;;4967531;28;20027;-90
2021/04/26 11:21:06;;;;;;;2.78;1.60;;;15.70;44.50;;;;;;4952503;28;20019;-92
2021/04/26 11:23:47;;;;;;;2.35;1.50;;;15.80;44.40;;;;;;4938195;28;20031;-90
2021/04/26 11:26:14;;;;;;;2.72;1.70;;;15.80;43.90;;;;;;4950747;28;20036;-91
2021/04/26 11:29:02;;;;;;;3.33;1.77;;;15.90;43.80;;;;;;4936678;28;20050;-93
2021/04/26 11:31:43;;;;;;;2.92;1.70;;;15.90;43.70;;;;;;4939671;29;20062;-86
2021/04/26 11:34:20;;;;;;;1.90;1.50;;;16.00;43.70;;;;;;4958290;28;20043;-87
2021/04/26 11:37:01;;;;;;;2.30;1.60;;;16.10;43.70;;;;;;4925031;28;20038;-83
2021/04/26 11:39:35;;;;;;;2.47;1.45;;;16.10;44.30;;;;;;4959924;28;20032;-86
2021/04/26 11:42:03;;;;;;;1.75;1.40;;;16.20;43.50;;;;;;4929775;29;20035;-85
2021/04/26 11:44:34;;;;;;;2.83;1.75;;;16.30;43.50;;;;;;4952911;28;20028;-85
2021/04/26 11:47:05;;;;;;;3.13;1.67;;;16.30;43.30;;;;;;4937267;29;20032;-81
2021/04/26 11:49:36;;;;;;;3.10;1.75;;;16.40;43.30;;;;;;4935112;29;20441;-84
2021/04/26 11:52:15;;;;;;;2.03;1.60;;;16.40;43.30;;;;;;4966113;28;20039;-83
2021/04/26 11:54:43;;;;;;;2.78;1.77;;;16.50;43.30;;;;;;4961774;28;20027;-88
2021/04/26 11:57:19;;;;;;;1.52;1.38;;;16.50;43.30;;;;;;4966727;28;20039;-89
2021/04/26 11:59:54;;;;;;;2.45;1.58;;;16.60;43.30;;;;;;4938058;29;20484;-88
2021/04/26 12:02:44;;;;;;;2.63;1.88;;;16.60;43.20;;;;;;4960659;28;20023;-85
2021/04/26 12:05:20;;;;;;;2.70;1.50;;;16.70;43.30;;;;;;4937032;28;20103;-88
2021/04/26 12:07:48;;;;;;;3.15;1.45;;;16.70;43.20;;;;;;4948079;28;20217;-89
2021/04/26 12:10:17;;;;;;;2.80;1.60;;;16.80;43.20;;;;;;4930299;28;20077;-86
2021/04/26 12:12:44;;;;;;;2.47;1.75;;;16.80;43.00;;;;;;4950669;29;20028;-86
2021/04/26 12:15:18;;;;;;;2.35;1.67;;;16.90;43.00;;;;;;4984535;28;20479;-88
2021/04/26 12:17:47;;;;;;;3.90;1.88;;;16.90;42.70;;;;;;4931605;29;20035;-88
2021/04/26 12:20:20;;;;;;;3.25;1.60;;;16.90;42.70;;;;;;4942446;28;20031;-89
2021/04/26 12:22:50;;;;;;;2.15;1.70;;;17.00;42.80;;;;;;4943505;28;20023;-87
2021/04/26 12:25:18;;;;;;;2.80;1.65;;;17.00;43.40;;;;;;4935353;28;20106;-85
2021/04/26 12:27:44;;;;;;;2.03;1.50;;;17.00;42.70;;;;;;4945968;28;20026;-88
2021/04/26 12:30:20;;;;;;;2.17;1.58;;;17.00;42.70;;;;;;4946553;29;20031;-90
2021/04/26 12:32:48;;;;;;;2.80;2.10;;;17.10;42.60;;;;;;4943868;28;20137;-89
2021/04/26 12:35:23;;;;;;;2.55;1.70;;;17.10;42.50;;;;;;4951069;28;20232;-90
2021/04/26 12:37:50;;;;;;;2.83;1.70;;;17.10;42.40;;;;;;4955986;28;20027;-89
2021/04/26 12:40:24;;;;;;;3.08;1.40;;;17.20;42.30;;;;;;4922059;28;20088;-88
2021/04/26 12:43:03;;;;;;;2.50;1.55;;;17.20;42.20;;;;;;4955176;28;20067;-83
2021/04/26 12:45:55;;;;;;;2.33;1.50;;;17.20;42.20;;;;;;4938032;29;20122;-83
2021/04/26 12:48:31;;;;;;;3.30;1.63;;;17.30;42.00;;;;;;4954125;28;20069;-84
2021/04/26 12:50:57;;;;;;;2.33;1.60;;;17.30;41.80;;;;;;4943130;28;20027;-83
2021/04/26 12:53:28;;;;;;;2.00;1.55;;;17.30;41.80;;;;;;4927472;28;20494;-83
2021/04/26 12:55:55;;;;;;;2.90;1.85;;;17.40;41.80;;;;;;4951679;28;20045;-83
2021/04/26 12:58:59;;;;;;;2.28;1.60;;;17.40;41.70;;;;;;4926371;28;20054;-83
2021/04/26 13:01:25;;;;;;;2.47;1.60;;;17.50;41.80;;;;;;4921843;29;20035;-83
2021/04/26 13:03:51;;;;;;;2.05;1.67;;;17.50;41.70;;;;;;4938745;28;20023;-83
2021/04/26 13:06:26;;;;;;;2.22;1.88;;;17.50;41.40;;;;;;4924234;28;20059;-83
2021/04/26 13:09:09;;;;;;;2.63;1.85;;;17.50;41.30;;;;;;4988140;28;20177;-83
2021/04/26 13:11:37;;;;;;;3.33;1.98;;;17.50;41.20;;;;;;4959208;28;20027;-83
2021/04/26 13:14:11;;;;;;;3.45;1.88;;;17.60;41.30;;;;;;4947262;28;20506;-83
2021/04/26 13:16:39;;;;;;;2.95;1.80;;;17.70;41.30;;;;;;4938765;29;20031;-82